createdAt,value
2022-12-17T00:00:48.423Z,75.50
2022-12-17T00:03:34.991Z,75.59
2022-12-17T00:06:21.364Z,75.25
2022-12-17T00:09:07.331Z,75.46
2022-12-17T00:11:53.556Z,75.47
2022-12-17T00:14:42.055Z,74.93
2022-12-17T00:17:28.112Z,75.58
2022-12-17T00:20:13.864Z,74.93
2022-12-17T00:22:59.532Z,75.24
2022-12-17T00:25:45.639Z,75.94
2022-12-17T00:28:32.180Z,75.50
2022-12-17T00:31:18.005Z,74.93
2022-12-17T00:34:05.176Z,74.31
2022-12-17T00:36:50.868Z,73.63
2022-12-17T00:39:37.890Z,72.79
2022-12-17T00:42:24.480Z,73.88
2022-12-17T00:45:10.328Z,73.90
2022-12-17T00:47:56.605Z,73.18
2022-12-17T00:50:43.077Z,73.75
2022-12-17T00:53:28.995Z,73.61
2022-12-17T00:56:24.857Z,74.95
2022-12-17T00:59:11.012Z,74.04
2022-12-17T01:01:57.334Z,74.07
2022-12-17T01:04:43.602Z,74.24
2022-12-17T01:07:30.966Z,73.92
2022-12-17T01:10:17.265Z,73.87
2022-12-17T01:13:03.300Z,73.41
2022-12-17T01:15:49.221Z,73.49
2022-12-17T01:18:37.640Z,73.44
2022-12-17T01:21:23.594Z,73.84
2022-12-17T01:24:09.730Z,75.11
2022-12-17T01:26:56.260Z,75.70
2022-12-17T01:29:42.145Z,75.17
2022-12-17T01:32:28.521Z,74.73
2022-12-17T01:35:14.360Z,74.65
2022-12-17T01:38:00.840Z,73.75
2022-12-17T01:40:46.828Z,74.52
2022-12-17T01:43:33.581Z,74.66
2022-12-17T01:46:20.093Z,75.57
2022-12-17T01:49:06.547Z,75.23
2022-12-17T01:51:53.272Z,75.22
2022-12-17T01:54:52.998Z,75.82
2022-12-17T01:57:39.260Z,75.92
2022-12-17T02:00:27.361Z,75.83
2022-12-17T02:03:16.815Z,75.08
2022-12-17T02:06:24.738Z,74.14
2022-12-17T02:09:38.657Z,74.29
2022-12-17T02:12:57.574Z,75.64
2022-12-17T02:15:52.680Z,75.12
2022-12-17T02:18:53.573Z,74.94
2022-12-17T02:21:40.506Z,74.60
2022-12-17T02:24:39.452Z,74.58
2022-12-17T02:27:28.442Z,73.75
2022-12-17T02:30:17.731Z,73.57
2022-12-17T02:33:05.465Z,75.28
2022-12-17T02:35:55.454Z,76.60
2022-12-17T02:38:48.561Z,76.02
2022-12-17T02:41:38.667Z,75.19
2022-12-17T02:44:28.583Z,74.58
2022-12-17T02:47:16.072Z,73.82
2022-12-17T02:50:03.253Z,73.97
2022-12-17T02:52:55.493Z,73.89
2022-12-17T02:55:41.380Z,74.24
2022-12-17T02:58:27.373Z,74.52
2022-12-17T03:01:13.499Z,74.27
2022-12-17T03:03:59.666Z,73.30
2022-12-17T03:06:46.051Z,73.85
2022-12-17T03:09:35.981Z,73.19
2022-12-17T03:12:22.955Z,72.84
2022-12-17T03:15:09.264Z,72.83
2022-12-17T03:17:55.331Z,74.03
2022-12-17T03:20:43.376Z,73.57
2022-12-17T03:23:30.564Z,73.15
2022-12-17T03:26:17.938Z,73.82
2022-12-17T03:29:04.104Z,73.97
2022-12-17T03:31:50.780Z,72.99
2022-12-17T03:34:37.350Z,72.61
2022-12-17T03:37:23.424Z,74.13
2022-12-17T03:40:10.827Z,74.43
2022-12-17T03:42:56.853Z,74.53
2022-12-17T03:45:42.730Z,73.94
2022-12-17T03:48:31.153Z,74.50
2022-12-17T03:51:17.601Z,73.86
2022-12-17T03:54:03.814Z,73.74
2022-12-17T03:56:50.122Z,73.71
2022-12-17T03:59:36.212Z,74.50
2022-12-17T04:02:23.259Z,74.25
2022-12-17T04:05:12.782Z,73.57
2022-12-17T04:08:02.339Z,74.02
2022-12-17T04:10:48.442Z,73.70
2022-12-17T04:13:38.923Z,73.54
2022-12-17T04:16:27.371Z,71.87
2022-12-17T04:19:13.606Z,72.44
2022-12-17T04:21:59.693Z,72.46
2022-12-17T04:24:45.935Z,72.70
2022-12-17T04:27:31.688Z,70.55
2022-12-17T04:30:17.743Z,71.46
2022-12-17T04:33:03.661Z,71.46
2022-12-17T04:35:49.585Z,72.16
2022-12-17T04:38:36.089Z,71.86
2022-12-17T04:41:22.465Z,72.21
2022-12-17T04:44:08.423Z,73.22
2022-12-17T04:46:55.217Z,73.72
2022-12-17T04:49:41.144Z,73.80
2022-12-17T04:52:27.212Z,73.17
2022-12-17T04:55:13.354Z,72.76
2022-12-17T04:57:59.321Z,72.71
2022-12-17T05:00:45.617Z,73.23
2022-12-17T05:03:34.105Z,73.65
2022-12-17T05:06:21.089Z,73.87
2022-12-17T05:09:07.252Z,73.25
2022-12-17T05:11:53.274Z,73.78
2022-12-17T05:14:39.174Z,74.43
2022-12-17T05:17:25.341Z,73.33
2022-12-17T05:20:11.328Z,72.60
2022-12-17T05:22:57.363Z,72.66
2022-12-17T05:25:43.559Z,71.73
2022-12-17T05:28:31.997Z,72.84
2022-12-17T05:31:18.400Z,73.59
2022-12-17T05:34:04.643Z,73.46
2022-12-17T05:36:50.310Z,73.69
2022-12-17T05:39:36.391Z,73.71
2022-12-17T05:42:22.659Z,73.29
2022-12-17T05:45:08.719Z,73.37
2022-12-17T05:47:54.665Z,72.47
2022-12-17T05:50:40.685Z,73.29
2022-12-17T05:53:27.330Z,72.97
2022-12-17T05:56:13.231Z,72.42
2022-12-17T05:58:58.976Z,71.51
2022-12-17T06:01:45.226Z,72.19
2022-12-17T06:04:31.693Z,72.86
2022-12-17T06:07:17.584Z,72.94
2022-12-17T06:10:03.718Z,73.37
2022-12-17T06:12:49.683Z,74.42
2022-12-17T06:15:35.926Z,73.85
2022-12-17T06:18:21.960Z,74.70
2022-12-17T06:21:07.977Z,74.49
2022-12-17T06:23:54.352Z,73.84
2022-12-17T06:26:40.439Z,73.92
2022-12-17T06:29:26.583Z,73.85
2022-12-17T06:32:12.896Z,73.53
2022-12-17T06:34:58.986Z,73.80
2022-12-17T06:37:45.023Z,73.77
2022-12-17T06:40:31.161Z,74.76
2022-12-17T06:43:17.335Z,76.03
2022-12-17T06:46:03.529Z,75.00
2022-12-17T06:48:49.351Z,74.25
2022-12-17T06:51:35.284Z,73.77
2022-12-17T06:54:21.819Z,73.61
2022-12-17T06:57:08.067Z,73.88
2022-12-17T06:59:54.477Z,73.60
2022-12-17T07:02:40.818Z,73.40
2022-12-17T07:05:27.415Z,73.61
2022-12-17T07:08:17.888Z,74.31
2022-12-17T07:11:04.508Z,74.99
2022-12-17T07:13:50.656Z,74.57
2022-12-17T07:16:36.605Z,75.16
2022-12-17T07:19:27.195Z,74.09
2022-12-17T07:22:14.510Z,74.04
2022-12-17T07:25:00.634Z,74.78
2022-12-17T07:27:46.479Z,74.95
2022-12-17T07:30:32.829Z,74.90
2022-12-17T07:33:20.291Z,75.52
2022-12-17T07:36:06.210Z,76.11
2022-12-17T07:38:52.154Z,75.91
2022-12-17T07:41:38.218Z,75.83
2022-12-17T07:44:24.580Z,74.17
2022-12-17T07:47:10.552Z,73.88
2022-12-17T07:49:56.707Z,73.50
2022-12-17T07:52:42.859Z,72.79
2022-12-17T07:55:29.357Z,72.60
2022-12-17T07:58:23.848Z,72.81
2022-12-17T08:01:09.980Z,74.16
2022-12-17T08:03:56.695Z,72.77
2022-12-17T08:06:42.567Z,73.70
2022-12-17T08:09:28.562Z,74.21
2022-12-17T08:12:14.701Z,73.85
2022-12-17T08:15:00.834Z,73.64
2022-12-17T08:17:46.890Z,74.40
2022-12-17T08:20:33.215Z,73.64
2022-12-17T08:23:20.780Z,73.95
2022-12-17T08:26:07.044Z,74.14
2022-12-17T08:28:53.047Z,74.16
2022-12-17T08:31:39.533Z,73.80
2022-12-17T08:34:25.795Z,74.38
2022-12-17T08:37:12.653Z,74.14
2022-12-17T08:39:58.589Z,73.92
2022-12-17T08:42:44.799Z,75.19
2022-12-17T08:45:30.878Z,74.64
2022-12-17T08:48:29.439Z,74.26
2022-12-17T08:51:15.639Z,76.54
2022-12-17T08:54:06.106Z,76.80
2022-12-17T08:56:51.799Z,76.46
2022-12-17T08:59:38.683Z,63.36
2022-12-17T09:02:25.050Z,64.21
2022-12-17T09:05:11.513Z,67.32
2022-12-17T09:08:06.879Z,69.18
2022-12-17T09:10:53.291Z,69.81
2022-12-17T09:13:39.339Z,70.37
2022-12-17T09:16:25.487Z,71.66
2022-12-17T09:19:11.803Z,72.04
2022-12-17T09:21:57.689Z,71.54
2022-12-17T09:24:44.405Z,72.47
2022-12-17T09:27:30.722Z,74.38
2022-12-17T09:30:17.016Z,73.54
2022-12-17T09:33:03.107Z,72.89
2022-12-17T09:35:49.191Z,73.18
2022-12-17T09:38:35.453Z,72.93
2022-12-17T09:41:46.288Z,72.98
2022-12-17T09:45:09.429Z,73.04
2022-12-17T09:48:10.366Z,73.40
2022-12-17T09:50:56.830Z,73.59
2022-12-17T09:53:58.762Z,72.40
2022-12-17T09:56:49.857Z,72.65
2022-12-17T09:59:47.828Z,74.19
2022-12-17T10:02:39.928Z,74.74
2022-12-17T10:05:41.136Z,75.25
2022-12-17T10:08:31.508Z,75.12
2022-12-17T10:11:34.411Z,75.71
2022-12-17T10:14:23.719Z,76.00
2022-12-17T10:17:12.025Z,75.53
2022-12-17T10:19:59.882Z,76.04
2022-12-17T10:22:46.524Z,74.67
2022-12-17T10:25:38.886Z,74.25
2022-12-17T10:28:31.547Z,73.63
2022-12-17T10:31:29.367Z,73.00
2022-12-17T10:34:26.972Z,73.46
2022-12-17T10:37:13.488Z,73.97
2022-12-17T10:40:03.696Z,73.90
2022-12-17T10:42:57.381Z,74.62
2022-12-17T10:45:50.440Z,74.37
2022-12-17T10:48:38.136Z,73.63
2022-12-17T10:51:25.537Z,74.48
2022-12-17T10:54:11.984Z,74.77
2022-12-17T10:56:58.383Z,74.09
2022-12-17T10:59:51.028Z,74.34
2022-12-17T11:02:48.186Z,73.43
2022-12-17T11:05:43.377Z,72.67
2022-12-17T11:08:33.350Z,72.92
2022-12-17T11:11:21.734Z,72.67
2022-12-17T11:14:14.938Z,73.09
2022-12-17T11:17:17.447Z,73.05
2022-12-17T11:20:14.468Z,72.57
2022-12-17T11:23:07.255Z,72.67
2022-12-17T11:25:59.552Z,72.52
2022-12-17T11:28:50.016Z,72.93
2022-12-17T11:31:35.783Z,73.84
2022-12-17T11:34:37.669Z,73.30
2022-12-17T11:37:30.005Z,73.06
2022-12-17T11:40:21.146Z,72.88
2022-12-17T11:43:20.377Z,71.64
2022-12-17T11:46:33.631Z,71.03
2022-12-17T11:49:48.100Z,70.58
2022-12-17T11:52:34.127Z,70.41
2022-12-17T11:55:36.133Z,70.11
2022-12-17T11:58:32.275Z,70.57
2022-12-17T12:01:37.556Z,70.35
2022-12-17T12:04:39.959Z,70.89
2022-12-17T12:07:43.070Z,70.96
2022-12-17T12:10:44.216Z,71.17
2022-12-17T12:13:42.270Z,70.44
2022-12-17T12:16:44.512Z,69.28
2022-12-17T12:19:49.230Z,69.46
2022-12-17T12:23:07.234Z,69.80
2022-12-17T12:25:55.457Z,69.97
2022-12-17T12:29:06.426Z,70.07
2022-12-17T12:32:03.748Z,69.60
2022-12-17T12:34:51.195Z,70.61
2022-12-17T12:37:38.656Z,70.04
2022-12-17T12:41:03.562Z,70.17
2022-12-17T12:43:52.399Z,69.64
2022-12-17T12:46:44.446Z,68.63
2022-12-17T12:49:46.825Z,68.78
2022-12-17T12:52:37.954Z,68.76
2022-12-17T12:55:24.707Z,69.77
2022-12-17T12:58:18.479Z,69.66
2022-12-17T13:01:07.406Z,69.16
2022-12-17T13:04:02.492Z,69.18
2022-12-17T13:06:54.340Z,69.53
2022-12-17T13:09:24.750Z,69.64
2022-12-17T13:12:14.608Z,68.71
2022-12-17T13:14:58.891Z,68.35
2022-12-17T13:17:33.839Z,68.40
2022-12-17T13:20:31.235Z,67.63
2022-12-17T13:23:27.891Z,68.04
2022-12-17T13:26:23.762Z,67.90
2022-12-17T13:28:58.481Z,67.48
2022-12-17T13:31:31.657Z,67.49
2022-12-17T13:34:26.080Z,66.49
2022-12-17T13:36:53.532Z,66.74
2022-12-17T13:39:54.851Z,66.11
2022-12-17T13:42:34.766Z,66.20
2022-12-17T13:45:02.697Z,66.91
2022-12-17T13:47:35.522Z,66.55
2022-12-17T13:50:33.928Z,66.12
2022-12-17T13:53:13.161Z,65.95
2022-12-17T13:55:41.061Z,65.87
2022-12-17T13:58:21.622Z,65.94
2022-12-17T14:00:49.241Z,67.74
2022-12-17T14:03:32.335Z,66.12
2022-12-17T14:06:09.855Z,66.17
2022-12-17T14:08:38.241Z,66.27
2022-12-17T14:11:26.316Z,66.61
2022-12-17T14:13:53.693Z,66.17
2022-12-17T14:16:21.933Z,66.26
2022-12-17T14:18:57.149Z,65.51
2022-12-17T14:21:26.696Z,65.05
2022-12-17T14:23:54.623Z,64.78
2022-12-17T14:26:22.226Z,65.27
2022-12-17T14:28:53.142Z,65.42
2022-12-17T14:31:27.536Z,64.65
2022-12-17T14:34:11.196Z,65.18
2022-12-17T14:36:41.774Z,65.55
2022-12-17T14:39:18.953Z,65.28
2022-12-17T14:42:04.902Z,64.85
2022-12-17T14:44:32.488Z,65.26
2022-12-17T14:47:14.496Z,64.83
2022-12-17T14:50:14.050Z,65.10
2022-12-17T14:52:43.441Z,64.28
2022-12-17T14:55:38.451Z,64.30
2022-12-17T14:58:13.861Z,65.56
2022-12-17T15:00:45.810Z,65.31
2022-12-17T15:03:21.846Z,64.65
2022-12-17T15:05:56.795Z,64.95
2022-12-17T15:08:24.875Z,65.04
2022-12-17T15:10:52.899Z,64.85
2022-12-17T15:13:20.597Z,64.67
2022-12-17T15:15:48.085Z,64.76
2022-12-17T15:18:15.959Z,64.81
2022-12-17T15:20:44.162Z,64.40
2022-12-17T15:23:20.831Z,64.37
2022-12-17T15:25:50.292Z,64.92
2022-12-17T15:28:18.604Z,65.05
2022-12-17T15:30:46.803Z,64.82
2022-12-17T15:33:23.085Z,64.79
2022-12-17T15:35:53.755Z,64.60
2022-12-17T15:38:22.170Z,64.01
2022-12-17T15:40:52.424Z,63.98
2022-12-17T15:43:20.097Z,64.37
2022-12-17T15:45:49.378Z,64.23
2022-12-17T15:48:22.150Z,64.29
2022-12-17T15:50:50.112Z,64.21
2022-12-17T15:53:17.768Z,63.75
2022-12-17T15:55:45.092Z,64.11
2022-12-17T15:58:14.426Z,63.40
2022-12-17T16:00:42.203Z,63.92
2022-12-17T16:03:09.700Z,63.86
2022-12-17T16:05:36.955Z,64.00
2022-12-17T16:08:04.604Z,63.67
2022-12-17T16:10:32.124Z,64.11
2022-12-17T16:12:59.917Z,64.49
2022-12-17T16:15:27.286Z,63.74
2022-12-17T16:17:54.780Z,63.42
2022-12-17T16:20:22.882Z,63.67
2022-12-17T16:22:50.836Z,63.58
2022-12-17T16:25:18.815Z,63.51
2022-12-17T16:27:46.104Z,62.68
2022-12-17T16:30:13.976Z,63.24
2022-12-17T16:32:41.572Z,63.08
2022-12-17T16:35:09.927Z,63.15
2022-12-17T16:37:38.261Z,62.19
2022-12-17T16:40:06.485Z,62.49
2022-12-17T16:42:34.259Z,63.31
2022-12-17T16:45:02.016Z,62.86
2022-12-17T16:47:29.316Z,62.97
2022-12-17T16:49:56.746Z,62.85
2022-12-17T16:52:24.411Z,63.24
2022-12-17T16:54:51.806Z,63.70
2022-12-17T16:57:19.227Z,63.47
2022-12-17T16:59:46.551Z,63.67
2022-12-17T17:02:15.194Z,64.12
2022-12-17T17:04:43.276Z,64.36
2022-12-17T17:07:10.735Z,64.55
2022-12-17T17:09:38.064Z,63.98
2022-12-17T17:12:05.941Z,63.96
2022-12-17T17:14:33.858Z,64.07
2022-12-17T17:17:01.536Z,63.03
2022-12-17T17:19:30.117Z,63.35
2022-12-17T17:21:57.513Z,64.50
2022-12-17T17:24:26.118Z,63.75
2022-12-17T17:26:54.797Z,63.10
2022-12-17T17:29:22.272Z,63.37
2022-12-17T17:32:09.920Z,62.55
2022-12-17T17:34:38.808Z,62.47
2022-12-17T17:37:06.181Z,62.33
2022-12-17T17:39:34.417Z,63.05
2022-12-17T17:42:02.113Z,62.80
2022-12-17T17:44:29.849Z,63.16
2022-12-17T17:46:57.243Z,63.87
2022-12-17T17:49:25.339Z,63.37
2022-12-17T17:52:10.258Z,64.51
2022-12-17T17:54:39.627Z,64.85
2022-12-17T17:57:07.990Z,65.47
2022-12-17T17:59:35.759Z,66.22
2022-12-17T18:02:03.821Z,65.68
2022-12-17T18:04:31.829Z,65.30
2022-12-17T18:09:46.918Z,65.78
2022-12-17T18:12:32.888Z,66.11
2022-12-17T18:15:17.411Z,65.96
2022-12-17T18:17:47.998Z,66.46
2022-12-17T18:20:16.267Z,66.09
2022-12-17T18:22:46.316Z,66.33
2022-12-17T18:25:15.810Z,66.26
2022-12-17T18:27:44.179Z,66.53
2022-12-17T18:30:12.234Z,66.55
2022-12-17T18:32:39.762Z,65.72
2022-12-17T18:35:07.639Z,66.27
2022-12-17T18:37:35.056Z,66.66
2022-12-17T18:40:02.444Z,67.04
2022-12-17T18:42:48.557Z,67.83
2022-12-17T18:45:16.269Z,67.34
2022-12-17T18:47:44.772Z,67.18
2022-12-17T18:50:18.928Z,68.43
2022-12-17T18:52:48.992Z,68.70
2022-12-17T18:55:16.683Z,68.28
2022-12-17T18:57:44.044Z,68.35
2022-12-17T19:00:12.439Z,68.27
2022-12-17T19:02:39.966Z,68.54
2022-12-17T19:05:07.788Z,67.98
2022-12-17T19:07:35.412Z,69.17
2022-12-17T19:10:03.192Z,69.77
2022-12-17T19:12:31.616Z,69.88
2022-12-17T19:14:59.066Z,69.96
2022-12-17T19:17:27.023Z,69.30
2022-12-17T19:19:57.691Z,68.79
2022-12-17T19:22:25.354Z,69.29
2022-12-17T19:24:52.793Z,69.40
2022-12-17T19:27:20.497Z,68.45
2022-12-17T19:29:51.052Z,69.28
2022-12-17T19:32:18.377Z,68.16
2022-12-17T19:34:45.858Z,69.18
2022-12-17T19:37:13.632Z,68.59
2022-12-17T19:39:41.182Z,68.38
2022-12-17T19:42:24.629Z,68.23
2022-12-17T19:44:55.857Z,68.61
2022-12-17T19:47:26.726Z,69.27
2022-12-17T19:49:53.983Z,68.67
2022-12-17T19:52:21.345Z,68.39
2022-12-17T19:54:49.390Z,68.73
2022-12-17T19:57:17.010Z,69.44
2022-12-17T19:59:44.412Z,69.76
2022-12-17T20:02:11.843Z,69.78
2022-12-17T20:04:39.877Z,70.42
2022-12-17T20:07:07.396Z,71.19
2022-12-17T20:09:35.145Z,69.99
2022-12-17T20:12:02.904Z,71.39
2022-12-17T20:14:30.863Z,70.46
2022-12-17T20:17:00.117Z,70.24
2022-12-17T20:19:31.104Z,69.71
2022-12-17T20:22:00.232Z,69.95
2022-12-17T20:24:31.553Z,70.25
2022-12-17T20:27:00.290Z,69.77
2022-12-17T20:29:28.167Z,69.92
2022-12-17T20:31:56.902Z,70.39
2022-12-17T20:34:30.781Z,69.95
2022-12-17T20:36:58.290Z,70.26
2022-12-17T20:39:28.250Z,68.97
2022-12-17T20:41:57.406Z,69.09
2022-12-17T20:44:25.294Z,69.68
2022-12-17T20:46:53.351Z,70.84
2022-12-17T20:49:20.723Z,70.39
2022-12-17T20:51:49.334Z,69.87
2022-12-17T20:54:17.124Z,70.38
2022-12-17T20:56:45.181Z,69.83
2022-12-17T20:59:17.748Z,70.53
2022-12-17T21:01:48.183Z,69.80
2022-12-17T21:04:19.072Z,70.46
2022-12-17T21:06:47.829Z,70.63
2022-12-17T21:09:18.483Z,70.36
2022-12-17T21:11:46.200Z,70.44
2022-12-17T21:14:16.411Z,70.27
2022-12-17T21:16:44.617Z,70.79
2022-12-17T21:19:14.803Z,70.26
2022-12-17T21:21:42.416Z,70.14
2022-12-17T21:24:10.044Z,70.22
2022-12-17T21:26:39.834Z,70.70
2022-12-17T21:29:08.385Z,70.33
2022-12-17T21:31:40.481Z,70.88
2022-12-17T21:34:12.128Z,70.67
2022-12-17T21:36:39.950Z,69.69
2022-12-17T21:39:09.206Z,70.27
2022-12-17T21:41:39.169Z,70.42
2022-12-17T21:44:12.417Z,70.99
2022-12-17T21:46:40.750Z,71.44
2022-12-17T21:49:10.260Z,71.65
2022-12-17T21:51:38.076Z,71.02
2022-12-17T21:54:08.751Z,71.75
2022-12-17T21:56:37.520Z,71.21
2022-12-17T21:59:05.191Z,71.68
2022-12-17T22:01:34.409Z,71.75
2022-12-17T22:04:04.408Z,71.84
2022-12-17T22:06:42.775Z,72.35
2022-12-17T22:09:28.908Z,71.95
2022-12-17T22:12:20.633Z,73.03
2022-12-17T22:14:48.312Z,73.75
2022-12-17T22:17:17.399Z,73.24
2022-12-17T22:19:45.411Z,73.06
2022-12-17T22:22:13.408Z,73.53
2022-12-17T22:24:41.123Z,73.21
2022-12-17T22:27:12.830Z,73.07
2022-12-17T22:29:58.861Z,72.97
2022-12-17T22:32:45.363Z,73.88
2022-12-17T22:36:01.889Z,74.49
2022-12-17T22:41:11.165Z,74.02
2022-12-17T22:44:32.048Z,74.18
2022-12-17T22:44:41.942Z,73.24
2022-12-17T22:46:24.286Z,73.16
2022-12-17T22:48:51.789Z,74.41
2022-12-17T22:51:31.479Z,74.40
2022-12-17T22:54:05.838Z,74.84
2022-12-17T22:57:15.155Z,74.89
2022-12-17T22:59:30.966Z,75.25
2022-12-17T23:01:58.603Z,75.12
2022-12-17T23:04:26.200Z,75.00
2022-12-17T23:06:53.830Z,74.64
2022-12-17T23:09:21.309Z,74.17
2022-12-17T23:11:48.977Z,74.62
2022-12-17T23:14:17.730Z,75.13
2022-12-17T23:16:45.498Z,76.36
2022-12-17T23:19:13.552Z,75.58
2022-12-17T23:21:41.132Z,76.08
2022-12-17T23:24:09.110Z,75.87
2022-12-17T23:26:37.356Z,75.75
2022-12-17T23:29:07.962Z,76.11
2022-12-17T23:31:38.477Z,75.31
2022-12-17T23:34:06.963Z,75.30
2022-12-17T23:36:35.376Z,75.35
2022-12-17T23:39:03.099Z,75.32
2022-12-17T23:41:32.106Z,74.97
2022-12-17T23:44:00.069Z,75.23
2022-12-17T23:46:29.226Z,75.37
2022-12-17T23:48:57.022Z,75.72
2022-12-17T23:51:26.153Z,74.46
2022-12-17T23:53:53.440Z,74.89
2022-12-17T23:56:24.303Z,74.50
2022-12-17T23:59:01.519Z,73.93
